createdAt,value
2018-12-26T00:01:55.747Z,7.03
2018-12-26T00:04:25.657Z,6.30
2018-12-26T00:06:55.556Z,5.77
2018-12-26T00:09:25.417Z,5.67
2018-12-26T00:11:55.138Z,6.47
2018-12-26T00:14:25.139Z,7.13
2018-12-26T00:17:14.178Z,6.30
2018-12-26T00:19:44.181Z,5.00
2018-12-26T00:22:14.157Z,6.20
2018-12-26T00:24:43.962Z,6.10
2018-12-26T00:27:33.257Z,6.87
2018-12-26T00:30:03.043Z,5.57
2018-12-26T00:32:32.923Z,7.53
2018-12-26T00:35:02.808Z,9.20
2018-12-26T00:37:32.636Z,9.93
2018-12-26T00:40:02.531Z,10.87
2018-12-26T00:42:32.388Z,10.73
2018-12-26T00:45:21.560Z,8.53
2018-12-26T00:48:10.757Z,7.17
2018-12-26T00:50:40.769Z,7.27
2018-12-26T00:53:29.847Z,8.33
2018-12-26T00:55:59.744Z,6.80
2018-12-26T00:58:48.996Z,7.63
2018-12-26T01:01:18.687Z,6.80
2018-12-26T01:04:07.907Z,6.57
2018-12-26T01:06:37.811Z,6.63
2018-12-26T01:09:26.980Z,5.07
2018-12-26T01:12:16.127Z,6.10
2018-12-26T01:14:58.968Z,6.13
2018-12-26T01:17:28.862Z,7.77
2018-12-26T01:19:58.907Z,6.90
2018-12-26T01:22:28.829Z,5.63
2018-12-26T01:24:58.709Z,5.83
2018-12-26T01:27:28.556Z,6.77
2018-12-26T01:29:58.506Z,6.80
2018-12-26T01:32:28.392Z,6.73
2018-12-26T01:34:58.297Z,6.90
2018-12-26T01:37:47.400Z,5.60
2018-12-26T01:40:17.237Z,4.57
2018-12-26T01:42:47.244Z,5.63
2018-12-26T01:45:36.316Z,4.47
2018-12-26T01:48:25.524Z,5.40
2018-12-26T01:51:14.575Z,6.70
2018-12-26T01:54:03.777Z,9.93
2018-12-26T01:56:33.494Z,9.90
2018-12-26T01:59:22.764Z,10.67
2018-12-26T02:02:11.977Z,10.83
2018-12-26T02:04:41.918Z,10.73
2018-12-26T02:07:11.883Z,9.27
2018-12-26T02:09:41.799Z,12.00
2018-12-26T02:12:11.628Z,11.10
2018-12-26T02:14:41.480Z,9.93
2018-12-26T02:17:11.368Z,11.57
2018-12-26T02:20:00.532Z,8.40
2018-12-26T02:22:49.598Z,9.37
2018-12-26T02:25:19.654Z,10.97
2018-12-26T02:27:49.496Z,8.17
2018-12-26T02:30:19.552Z,8.10
2018-12-26T02:32:50.341Z,11.57
2018-12-26T02:35:20.096Z,9.23
2018-12-26T02:37:50.113Z,10.67
2018-12-26T02:40:19.871Z,9.17
2018-12-26T02:42:49.781Z,8.83
2018-12-26T02:45:19.660Z,8.43
2018-12-26T02:47:49.442Z,10.33
2018-12-26T02:50:19.228Z,10.80
2018-12-26T02:52:49.039Z,9.70
2018-12-26T02:55:18.868Z,10.63
2018-12-26T02:58:07.991Z,9.20
2018-12-26T03:00:57.298Z,9.20
2018-12-26T03:03:27.227Z,9.93
2018-12-26T03:05:56.950Z,9.80
2018-12-26T03:08:27.000Z,8.97
2018-12-26T03:10:57.064Z,8.53
2018-12-26T03:13:26.979Z,9.30
2018-12-26T03:15:56.756Z,8.63
2018-12-26T03:18:26.666Z,11.03
2018-12-26T03:20:56.657Z,8.53
2018-12-26T03:23:26.529Z,11.20
2018-12-26T03:25:56.328Z,8.93
2018-12-26T03:28:26.136Z,8.27
2018-12-26T03:31:15.456Z,8.30
2018-12-26T03:36:54.641Z,8.30
2018-12-26T03:39:24.593Z,7.57
2018-12-26T03:41:54.762Z,8.83
2018-12-26T03:45:04.898Z,8.97
2018-12-26T03:48:09.459Z,9.37
2018-12-26T03:51:13.446Z,7.57
2018-12-26T03:53:43.251Z,7.07
2018-12-26T03:56:13.078Z,8.63
2018-12-26T03:58:43.107Z,8.03
2018-12-26T04:01:12.911Z,7.77
2018-12-26T04:03:42.864Z,7.47
2018-12-26T04:06:51.487Z,7.80
2018-12-26T04:09:21.259Z,8.83
2018-12-26T04:14:53.048Z,7.63
2018-12-26T04:17:23.921Z,7.93
2018-12-26T04:19:54.070Z,9.73
2018-12-26T04:22:23.962Z,6.67
2018-12-26T04:25:33.748Z,7.57
2018-12-26T04:28:03.656Z,7.00
2018-12-26T04:30:35.293Z,7.47
2018-12-26T04:33:24.497Z,6.27
2018-12-26T04:35:54.352Z,6.80
2018-12-26T04:38:24.364Z,8.23
2018-12-26T04:40:54.275Z,7.23
2018-12-26T04:43:24.056Z,6.80
2018-12-26T04:45:54.009Z,8.63
2018-12-26T04:48:23.798Z,7.57
2018-12-26T04:51:13.082Z,10.07
2018-12-26T04:53:42.872Z,7.23
2018-12-26T04:56:12.670Z,7.33
2018-12-26T04:58:42.704Z,8.27
2018-12-26T05:01:12.829Z,6.60
2018-12-26T05:04:02.164Z,10.67
2018-12-26T05:06:32.008Z,9.90
2018-12-26T05:09:01.809Z,6.03
2018-12-26T05:11:31.785Z,8.73
2018-12-26T05:14:01.624Z,7.97
2018-12-26T05:17:05.579Z,7.87
2018-12-26T05:19:35.906Z,8.50
2018-12-26T05:22:05.787Z,7.87
2018-12-26T05:24:35.605Z,10.50
2018-12-26T05:27:05.561Z,9.30
2018-12-26T05:29:35.303Z,8.13
2018-12-26T05:32:05.190Z,8.77
2018-12-26T05:34:35.001Z,9.10
2018-12-26T05:37:04.859Z,6.97
2018-12-26T05:39:34.822Z,7.10
2018-12-26T05:42:04.704Z,6.80
2018-12-26T05:44:34.535Z,7.10
2018-12-26T05:47:04.349Z,6.93
2018-12-26T05:49:34.141Z,9.03
2018-12-26T05:52:04.206Z,6.57
2018-12-26T05:54:33.970Z,7.20
2018-12-26T05:57:03.839Z,9.87
2018-12-26T05:59:33.700Z,8.73
2018-12-26T06:02:03.605Z,7.63
2018-12-26T06:04:33.406Z,7.97
2018-12-26T06:07:03.334Z,7.80
2018-12-26T06:09:33.116Z,8.50
2018-12-26T06:12:03.035Z,6.03
2018-12-26T06:15:13.033Z,7.03
2018-12-26T06:17:42.856Z,7.53
2018-12-26T06:20:32.230Z,6.40
2018-12-26T06:23:21.408Z,7.03
2018-12-26T06:26:10.545Z,8.10
2018-12-26T06:28:53.940Z,8.43
2018-12-26T06:31:23.716Z,6.80
2018-12-26T06:33:53.509Z,6.00
2018-12-26T06:36:23.286Z,6.27
2018-12-26T06:39:12.422Z,5.50
2018-12-26T06:42:01.652Z,5.77
2018-12-26T06:44:32.679Z,7.27
2018-12-26T06:47:22.339Z,5.07
2018-12-26T06:49:52.082Z,7.00
2018-12-26T06:52:54.577Z,6.00
2018-12-26T06:55:24.362Z,8.43
2018-12-26T06:58:13.561Z,9.10
2018-12-26T07:00:43.367Z,8.00
2018-12-26T07:03:32.459Z,9.83
2018-12-26T07:06:02.168Z,6.13
2018-12-26T07:08:32.345Z,7.87
2018-12-26T07:11:23.168Z,7.90
2018-12-26T07:13:52.980Z,12.03
2018-12-26T07:16:42.168Z,11.33
2018-12-26T07:19:44.340Z,10.67
2018-12-26T07:22:14.134Z,10.17
2018-12-26T07:25:03.335Z,14.37
2018-12-26T07:27:33.129Z,29.40
2018-12-26T07:30:22.428Z,31.60
2018-12-26T07:33:07.274Z,35.53
2018-12-26T07:35:56.880Z,33.00
2018-12-26T07:38:28.315Z,30.50
2018-12-26T07:40:58.037Z,19.57
2018-12-26T07:43:27.923Z,16.77
2018-12-26T07:45:57.700Z,12.47
2018-12-26T07:48:29.038Z,11.50
2018-12-26T07:51:37.794Z,76.53
2018-12-26T07:54:26.856Z,51.77
2018-12-26T07:56:56.776Z,19.27
2018-12-26T07:59:26.674Z,17.13
2018-12-26T08:02:15.768Z,23.40
2018-12-26T08:04:45.679Z,24.63
2018-12-26T08:07:34.835Z,17.40
2018-12-26T08:13:14.239Z,17.20
2018-12-26T08:15:43.971Z,15.07
2018-12-26T08:18:33.078Z,17.80
2018-12-26T08:21:02.916Z,16.00
2018-12-26T08:24:11.531Z,27.23
2018-12-26T08:26:54.613Z,20.83
2018-12-26T08:29:43.873Z,14.67
2018-12-26T08:32:33.079Z,14.50
2018-12-26T08:35:22.260Z,13.20
2018-12-26T08:38:11.501Z,14.20
2018-12-26T08:40:41.294Z,15.57
2018-12-26T08:43:11.252Z,13.27
2018-12-26T08:45:41.048Z,13.63
2018-12-26T08:48:30.361Z,14.50
2018-12-26T08:51:19.457Z,15.27
2018-12-26T08:54:08.600Z,14.13
2018-12-26T08:56:38.500Z,16.23
2018-12-26T08:59:08.469Z,18.73
2018-12-26T09:01:38.401Z,17.60
2018-12-26T09:04:08.198Z,18.13
2018-12-26T09:06:38.137Z,17.57
2018-12-26T09:09:07.983Z,17.30
2018-12-26T09:11:37.875Z,17.43
2018-12-26T09:14:07.755Z,15.87
2018-12-26T09:16:37.683Z,14.47
2018-12-26T09:19:07.469Z,12.20
2018-12-26T09:21:37.280Z,13.43
2018-12-26T09:24:07.184Z,14.57
2018-12-26T09:26:37.013Z,14.77
2018-12-26T09:29:26.215Z,12.07
2018-12-26T09:31:56.097Z,13.43
2018-12-26T09:34:25.870Z,13.50
2018-12-26T09:37:15.075Z,13.30
2018-12-26T09:39:44.867Z,14.03
2018-12-26T09:42:14.794Z,11.97
2018-12-26T09:48:06.255Z,11.33
2018-12-26T09:50:36.459Z,15.37
2018-12-26T09:53:06.306Z,14.60
2018-12-26T09:56:16.065Z,11.53
2018-12-26T09:58:52.434Z,13.50
2018-12-26T10:01:36.813Z,14.13
2018-12-26T10:04:06.607Z,12.07
2018-12-26T10:06:55.897Z,12.57
2018-12-26T10:09:25.731Z,14.00
2018-12-26T10:12:15.019Z,13.63
2018-12-26T10:14:44.847Z,18.37
2018-12-26T10:17:14.555Z,13.30
2018-12-26T10:22:25.495Z,15.43
2018-12-26T10:24:55.288Z,15.30
2018-12-26T10:30:26.848Z,13.53
2018-12-26T10:32:56.620Z,13.97
2018-12-26T10:35:26.425Z,18.77
2018-12-26T10:37:56.323Z,18.93
2018-12-26T10:40:26.073Z,16.40
2018-12-26T10:42:55.946Z,15.50
2018-12-26T10:45:25.698Z,14.50
2018-12-26T10:47:55.546Z,16.03
2018-12-26T10:50:25.296Z,18.07
2018-12-26T10:52:55.233Z,15.33
2018-12-26T10:55:44.467Z,16.00
2018-12-26T10:58:14.317Z,21.13
2018-12-26T11:00:44.132Z,19.40
2018-12-26T11:03:13.971Z,19.50
2018-12-26T11:05:43.830Z,18.83
2018-12-26T11:08:13.621Z,21.23
2018-12-26T11:10:43.476Z,15.73
2018-12-26T11:13:13.547Z,15.67
2018-12-26T11:15:43.324Z,18.87
2018-12-26T11:18:13.250Z,17.00
2018-12-26T11:20:43.048Z,36.47
2018-12-26T11:23:12.893Z,21.37
2018-12-26T11:25:42.713Z,18.07
2018-12-26T11:28:31.994Z,10.80
2018-12-26T11:31:01.842Z,12.83
2018-12-26T11:33:31.656Z,14.77
2018-12-26T11:36:01.474Z,11.63
2018-12-26T11:38:31.380Z,13.90
2018-12-26T11:41:01.309Z,14.80
2018-12-26T11:43:31.133Z,17.27
2018-12-26T11:46:01.122Z,15.00
2018-12-26T11:48:30.916Z,18.13
2018-12-26T11:51:20.084Z,13.53
2018-12-26T11:53:49.850Z,15.10
2018-12-26T11:56:19.742Z,16.27
2018-12-26T11:58:49.648Z,15.30
2018-12-26T12:01:19.445Z,14.70
2018-12-26T12:03:49.379Z,20.03
2018-12-26T12:06:19.221Z,17.83
2018-12-26T12:08:49.018Z,15.20
2018-12-26T12:11:38.390Z,14.97
2018-12-26T12:14:08.219Z,18.03
2018-12-26T12:16:37.996Z,15.57
2018-12-26T12:19:08.047Z,16.10
2018-12-26T12:21:37.954Z,13.07
2018-12-26T12:24:07.754Z,16.33
2018-12-26T12:26:49.331Z,15.93
2018-12-26T12:29:19.127Z,13.80
2018-12-26T12:31:48.956Z,13.57
2018-12-26T12:34:18.901Z,19.17
2018-12-26T12:37:08.135Z,14.23
2018-12-26T12:39:38.007Z,17.93
2018-12-26T12:42:07.813Z,16.73
2018-12-26T12:44:37.614Z,21.00
2018-12-26T12:47:07.395Z,14.60
2018-12-26T12:49:37.324Z,110.03
2018-12-26T12:52:07.189Z,57.77
2018-12-26T12:54:56.468Z,17.83
2018-12-26T12:57:27.999Z,14.10
2018-12-26T13:03:00.454Z,15.17
2018-12-26T13:05:50.852Z,18.90
2018-12-26T13:08:20.748Z,14.87
2018-12-26T13:11:10.033Z,15.20
2018-12-26T13:13:39.922Z,16.53
2018-12-26T13:16:09.766Z,14.53
2018-12-26T13:18:39.668Z,13.90
2018-12-26T13:21:09.620Z,16.10
2018-12-26T13:23:39.473Z,14.70
2018-12-26T13:26:09.339Z,13.60
2018-12-26T13:28:39.122Z,120.83
2018-12-26T13:31:08.998Z,32.00
2018-12-26T13:33:38.892Z,15.30
2018-12-26T13:36:48.610Z,18.07
2018-12-26T13:39:18.517Z,24.27
2018-12-26T13:41:48.361Z,28.37
2018-12-26T13:44:18.272Z,21.40
2018-12-26T13:46:49.956Z,22.40
2018-12-26T13:49:38.999Z,20.77
2018-12-26T13:52:08.914Z,23.47
2018-12-26T13:54:38.683Z,23.70
2018-12-26T13:57:08.535Z,22.80
2018-12-26T13:59:38.281Z,20.13
2018-12-26T14:02:08.084Z,19.17
2018-12-26T14:04:37.905Z,22.33
2018-12-26T14:07:07.755Z,16.93
2018-12-26T14:09:56.932Z,18.43
2018-12-26T14:12:26.666Z,21.57
2018-12-26T14:14:56.520Z,22.23
2018-12-26T14:17:26.584Z,18.57
2018-12-26T14:19:56.529Z,26.23
2018-12-26T14:22:26.412Z,21.90
2018-12-26T14:24:56.303Z,24.50
2018-12-26T14:27:29.534Z,24.70
2018-12-26T14:30:17.200Z,26.23
2018-12-26T14:32:47.078Z,58.40
2018-12-26T14:35:36.380Z,28.90
2018-12-26T14:38:06.260Z,30.67
2018-12-26T14:40:36.000Z,26.50
2018-12-26T14:43:05.908Z,25.40
2018-12-26T14:45:35.857Z,25.63
2018-12-26T14:48:05.722Z,29.83
2018-12-26T14:50:35.643Z,24.53
2018-12-26T14:53:05.506Z,30.03
2018-12-26T14:55:35.402Z,27.50
2018-12-26T14:58:05.180Z,24.37
2018-12-26T15:00:35.122Z,27.00
2018-12-26T15:03:04.942Z,20.87
2018-12-26T15:05:34.801Z,25.07
2018-12-26T15:08:24.035Z,23.97
2018-12-26T15:10:53.890Z,21.93
2018-12-26T15:13:23.829Z,23.50
2018-12-26T15:16:13.015Z,19.47
2018-12-26T15:18:42.946Z,20.43
2018-12-26T15:21:12.849Z,14.63
2018-12-26T15:23:42.779Z,17.37
2018-12-26T15:26:12.683Z,19.63
2018-12-26T15:28:42.590Z,17.30
2018-12-26T15:31:12.527Z,18.87
2018-12-26T15:33:42.407Z,19.53
2018-12-26T15:36:27.302Z,24.27
2018-12-26T15:38:57.192Z,20.93
2018-12-26T15:41:40.196Z,17.27
2018-12-26T15:44:29.254Z,19.20
2018-12-26T15:47:12.664Z,15.17
2018-12-26T15:50:01.809Z,24.23
2018-12-26T15:52:44.480Z,21.23
2018-12-26T15:55:14.471Z,20.20
2018-12-26T15:57:44.355Z,53.07
2018-12-26T16:00:37.602Z,23.93
2018-12-26T16:03:37.601Z,26.40
2018-12-26T16:06:07.433Z,29.13
2018-12-26T16:08:38.468Z,21.27
2018-12-26T16:11:08.399Z,23.80
2018-12-26T16:13:38.334Z,22.20
2018-12-26T16:16:08.569Z,24.57
2018-12-26T16:18:38.480Z,22.43
2018-12-26T16:21:08.598Z,21.47
2018-12-26T16:23:38.485Z,23.20
2018-12-26T16:26:08.444Z,22.40
2018-12-26T16:28:38.371Z,25.83
2018-12-26T16:31:08.269Z,21.23
2018-12-26T16:33:38.345Z,23.13
2018-12-26T16:36:08.309Z,22.87
2018-12-26T16:38:38.284Z,17.87
2018-12-26T16:41:27.521Z,21.17
2018-12-26T16:44:10.698Z,15.83
2018-12-26T16:46:40.648Z,19.30
2018-12-26T16:49:29.998Z,19.00
2018-12-26T16:52:19.667Z,22.33
2018-12-26T16:55:42.019Z,20.07
2018-12-26T17:01:00.618Z,19.97
2018-12-26T17:04:11.387Z,49.87
2018-12-26T17:07:00.651Z,24.67
2018-12-26T17:09:49.919Z,24.10
2018-12-26T17:12:19.796Z,21.43
2018-12-26T17:14:49.723Z,18.03
2018-12-26T17:17:20.577Z,18.07
2018-12-26T17:20:09.703Z,20.50
2018-12-26T17:22:52.075Z,19.37
2018-12-26T17:31:04.162Z,18.23
2018-12-26T17:36:30.658Z,18.67
2018-12-26T17:39:01.723Z,17.57
2018-12-26T17:41:32.269Z,18.80
2018-12-26T17:44:02.175Z,19.63
2018-12-26T17:46:32.094Z,20.50
2018-12-26T17:51:52.571Z,19.00
2018-12-26T17:55:23.659Z,18.53
2018-12-26T17:57:54.227Z,20.83
2018-12-26T18:01:23.812Z,21.47
2018-12-26T18:03:53.665Z,19.97
2018-12-26T18:06:24.789Z,18.53
2018-12-26T18:08:54.813Z,32.47
2018-12-26T18:11:26.389Z,20.73
2018-12-26T18:14:15.752Z,19.90
2018-12-26T18:16:46.064Z,23.60
2018-12-26T18:19:15.984Z,22.37
2018-12-26T18:21:46.210Z,26.37
2018-12-26T18:24:16.137Z,21.13
2018-12-26T18:27:14.875Z,24.87
2018-12-26T18:29:45.479Z,42.93
2018-12-26T18:35:37.488Z,28.80
2018-12-26T18:38:07.650Z,27.73
2018-12-26T18:40:38.139Z,29.80
2018-12-26T18:43:08.438Z,23.53
2018-12-26T18:45:38.349Z,35.53
2018-12-26T18:51:16.498Z,23.83
2018-12-26T18:53:47.147Z,22.30
2018-12-26T18:56:38.378Z,22.53
2018-12-26T18:59:46.188Z,23.33
2018-12-26T19:02:16.102Z,27.37
2018-12-26T19:05:45.709Z,23.57
2018-12-26T19:08:17.143Z,28.40
2018-12-26T19:10:47.107Z,86.90
2018-12-26T19:13:36.385Z,50.50
2018-12-26T19:16:28.214Z,27.43
2018-12-26T19:18:58.271Z,30.80
2018-12-26T19:21:28.259Z,26.13
2018-12-26T19:24:17.585Z,20.73
2018-12-26T19:27:07.351Z,26.23
2018-12-26T19:29:59.483Z,27.73
2018-12-26T19:33:29.720Z,27.63
2018-12-26T19:36:38.790Z,25.67
2018-12-26T19:39:08.906Z,27.87
2018-12-26T19:41:39.044Z,27.90
2018-12-26T19:45:07.107Z,32.97
2018-12-26T19:47:37.108Z,27.17
2018-12-26T19:56:15.467Z,31.97
2018-12-26T19:59:05.321Z,33.80
2018-12-26T20:01:54.543Z,33.47
2018-12-26T20:04:43.904Z,30.57
2018-12-26T20:07:33.330Z,35.83
2018-12-26T20:10:22.629Z,30.53
2018-12-26T20:15:54.483Z,30.37
2018-12-26T20:18:43.812Z,32.27
2018-12-26T20:22:14.757Z,34.07
2018-12-26T20:25:04.465Z,49.83
2018-12-26T20:27:53.527Z,40.77
2018-12-26T20:30:23.472Z,23.93
2018-12-26T20:32:53.539Z,23.97
2018-12-26T20:35:23.585Z,35.57
2018-12-26T20:37:54.522Z,35.07
2018-12-26T20:44:06.066Z,32.13
2018-12-26T20:47:14.681Z,31.07
2018-12-26T20:50:24.421Z,29.07
2018-12-26T20:53:13.843Z,28.87
2018-12-26T20:56:22.396Z,27.27
2018-12-26T20:59:11.812Z,22.93
2018-12-26T21:02:05.618Z,27.10
2018-12-26T21:04:52.202Z,25.80
2018-12-26T21:07:23.758Z,29.30
2018-12-26T21:10:13.313Z,23.20
2018-12-26T21:13:22.151Z,29.77
2018-12-26T21:16:13.322Z,27.27
2018-12-26T21:19:21.921Z,27.93
2018-12-26T21:22:11.648Z,28.43
2018-12-26T21:25:01.209Z,29.40
2018-12-26T21:28:09.750Z,26.33
2018-12-26T21:30:59.428Z,26.33
2018-12-26T21:33:48.807Z,24.63
2018-12-26T21:36:40.869Z,30.47
2018-12-26T21:39:10.832Z,30.13
2018-12-26T21:44:50.544Z,34.47
2018-12-26T21:47:39.904Z,37.67
2018-12-26T21:50:29.243Z,24.17
2018-12-26T21:53:38.824Z,21.03
2018-12-26T21:59:08.584Z,27.50
2018-12-26T22:01:38.549Z,28.93
2018-12-26T22:04:08.478Z,28.63
2018-12-26T22:06:39.988Z,30.30
2018-12-26T22:09:29.368Z,24.63
2018-12-26T22:12:18.668Z,27.73
2018-12-26T22:15:08.024Z,29.70
2018-12-26T22:17:39.546Z,27.20
2018-12-26T22:20:09.452Z,30.83
2018-12-26T22:22:58.696Z,30.40
2018-12-26T22:25:30.279Z,29.60
2018-12-26T22:28:19.549Z,30.17
2018-12-26T22:31:08.709Z,32.23
2018-12-26T22:33:38.979Z,32.10
2018-12-26T22:36:10.334Z,32.57
2018-12-26T22:38:40.166Z,31.20
2018-12-26T22:41:29.526Z,32.70
2018-12-26T22:44:18.810Z,30.47
2018-12-26T22:46:48.688Z,32.10
2018-12-26T22:49:34.328Z,32.10
2018-12-26T22:52:04.199Z,34.13
2018-12-26T22:54:54.874Z,29.57
2018-12-26T22:57:44.576Z,31.83
2018-12-26T23:03:16.540Z,34.77
2018-12-26T23:06:05.779Z,31.17
2018-12-26T23:08:55.214Z,34.07
2018-12-26T23:11:25.102Z,31.70
2018-12-26T23:13:56.929Z,31.23
2018-12-26T23:16:26.620Z,34.83
2018-12-26T23:18:58.100Z,33.13
2018-12-26T23:21:47.454Z,34.07
2018-12-26T23:24:36.685Z,32.77
2018-12-26T23:27:25.899Z,35.27
2018-12-26T23:29:55.727Z,42.83
2018-12-26T23:32:47.144Z,40.47
2018-12-26T23:35:35.956Z,36.00
2018-12-26T23:38:06.354Z,35.70
2018-12-26T23:40:36.244Z,34.37
2018-12-26T23:43:25.412Z,34.80
2018-12-26T23:46:14.767Z,33.50
2018-12-26T23:48:46.214Z,35.97
2018-12-26T23:51:35.417Z,33.00
2018-12-26T23:54:05.447Z,33.73
2018-12-26T23:56:54.781Z,35.43
2018-12-26T23:59:43.901Z,33.85
